Portada
METAR-TAF:

METAR-TAF

Aeropuertos :

Bushehr, Irán

latitud: 28-59N, longitud: 050-50E, altitud: 19 m

Observación

El informe se hizo hace 57 minutos, a las 10:00 UTC
Viento 6 kt del noroeste
Temperatura 25°C
Humedad 65%
Presión 1017 hPa
Visibilidad 10 km o más
Escasas nubes a una altura de 3500 ft, Cumulonimbus.
Nubes dispersas a una altura de 4000 ft
Cielo cubierto a una altura de 10000 ft

METAR: OIBB 031000Z 31006KT 9999 FEW035CB SCT040 OVC100 25/18 Q1017 A3004

Hora: 14:27 (10:57 UTC)


TAF: falta

Observaciones y pronósticos meteorológicos de más de 4000 aeropuertos (mensajes METAR y TAF).

Los puntos amarillos y rojos representan las estaciones disponibles.

Ponga el ratón en el punto deseado para ver el nombre de la estación.

Haga clic para ver las observaciones y los pronósticos meteorológicos.

Para cambiar el mapa : haga clic en los botones verdes con una cruz de color negro para hacer un zoom, en el botón verde con un guión para alejar o en las flechas verdes para mapas adyacentes.


METAR-TAF: